createdAt,value
2024-02-24T00:00:13.252Z,7.20
2024-02-24T00:03:32.745Z,6.18
2024-02-24T00:06:51.090Z,6.73
2024-02-24T00:10:09.337Z,7.15
2024-02-24T00:13:27.437Z,5.13
2024-02-24T00:16:45.604Z,5.00
2024-02-24T00:20:03.791Z,6.68
2024-02-24T00:23:21.737Z,4.60
2024-02-24T00:26:39.674Z,5.38
2024-02-24T00:30:00.735Z,6.93
2024-02-24T00:33:19.296Z,4.78
2024-02-24T00:36:37.735Z,5.55
2024-02-24T00:39:56.242Z,5.90
2024-02-24T00:43:14.545Z,6.58
2024-02-24T00:46:32.267Z,5.60
2024-02-24T00:49:50.203Z,6.08
2024-02-24T00:53:08.306Z,6.38
2024-02-24T00:56:26.484Z,6.40
2024-02-24T00:59:44.921Z,5.40
2024-02-24T01:03:02.568Z,6.08
2024-02-24T01:06:21.080Z,9.55
2024-02-24T01:09:39.034Z,6.90
2024-02-24T01:12:56.757Z,5.35
2024-02-24T01:16:15.199Z,7.10
2024-02-24T01:19:32.760Z,8.30
2024-02-24T01:22:52.241Z,7.98
2024-02-24T01:26:09.935Z,7.88
2024-02-24T01:29:27.669Z,7.60
2024-02-24T01:32:45.622Z,10.10
2024-02-24T01:36:03.475Z,8.73
2024-02-24T01:39:21.141Z,7.95
2024-02-24T01:42:38.688Z,7.58
2024-02-24T01:45:56.621Z,8.53
2024-02-24T01:49:14.756Z,8.93
2024-02-24T01:52:32.856Z,10.05
2024-02-24T01:55:50.642Z,8.68
2024-02-24T01:59:08.249Z,11.53
2024-02-24T02:02:26.252Z,8.48
2024-02-24T02:05:43.973Z,9.50
2024-02-24T02:09:02.014Z,6.68
2024-02-24T02:12:20.094Z,8.93
2024-02-24T02:15:38.827Z,10.10
2024-02-24T02:18:56.681Z,8.28
2024-02-24T02:22:16.413Z,9.25
2024-02-24T02:25:34.144Z,11.35
2024-02-24T02:28:51.757Z,6.98
2024-02-24T02:32:10.101Z,7.35
2024-02-24T02:35:28.268Z,13.28
2024-02-24T02:38:46.014Z,8.48
2024-02-24T02:42:03.743Z,12.00
2024-02-24T02:45:21.493Z,9.30
2024-02-24T02:48:39.202Z,11.05
2024-02-24T02:51:57.238Z,8.70
2024-02-24T02:55:16.156Z,8.85
2024-02-24T02:58:33.787Z,10.38
2024-02-24T03:01:57.466Z,8.98
2024-02-24T03:05:16.716Z,9.05
2024-02-24T03:08:35.723Z,9.25
2024-02-24T03:11:53.599Z,10.00
2024-02-24T03:15:12.411Z,12.25
2024-02-24T03:18:30.637Z,14.20
2024-02-24T03:21:48.539Z,9.53
2024-02-24T03:25:06.130Z,13.35
2024-02-24T03:28:23.745Z,10.00
2024-02-24T03:31:41.410Z,11.30
2024-02-24T03:34:59.041Z,8.63
2024-02-24T03:38:17.124Z,10.95
2024-02-24T03:41:38.754Z,7.98
2024-02-24T03:44:56.374Z,8.88
2024-02-24T03:48:15.286Z,8.90
2024-02-24T03:51:33.015Z,11.08
2024-02-24T03:54:50.697Z,8.33
2024-02-24T03:58:08.462Z,8.78
2024-02-24T04:01:27.853Z,9.45
2024-02-24T04:04:45.516Z,12.18
2024-02-24T04:08:03.203Z,8.35
2024-02-24T04:11:21.015Z,10.45
2024-02-24T04:14:39.292Z,10.45
2024-02-24T04:17:57.215Z,8.73
2024-02-24T04:21:15.844Z,9.80
2024-02-24T04:24:33.404Z,9.13
2024-02-24T04:27:50.937Z,10.30
2024-02-24T04:31:08.821Z,11.75
2024-02-24T04:34:26.422Z,9.20
2024-02-24T04:37:44.167Z,10.50
2024-02-24T04:41:01.998Z,8.55
2024-02-24T04:44:20.233Z,8.70
2024-02-24T04:47:37.926Z,11.98
2024-02-24T04:50:56.008Z,11.80
2024-02-24T04:54:15.662Z,9.68
2024-02-24T04:57:34.596Z,10.38
2024-02-24T05:00:52.586Z,8.33
2024-02-24T05:04:10.416Z,11.13
2024-02-24T05:07:28.709Z,9.48
2024-02-24T05:10:46.344Z,9.48
2024-02-24T05:14:04.075Z,9.30
2024-02-24T05:17:23.155Z,12.48
2024-02-24T05:20:41.861Z,10.25
2024-02-24T05:23:59.708Z,10.25
2024-02-24T05:27:17.389Z,9.08
2024-02-24T05:30:34.485Z,7.88
2024-02-24T05:37:07.153Z,9.95
2024-02-24T05:40:25.358Z,9.30
2024-02-24T05:43:43.192Z,10.00
2024-02-24T05:47:00.774Z,8.08
2024-02-24T05:50:19.914Z,8.13
2024-02-24T05:53:37.961Z,7.35
2024-02-24T05:56:56.111Z,9.93
2024-02-24T06:00:16.674Z,6.80
2024-02-24T06:03:34.436Z,7.73
2024-02-24T06:06:52.449Z,6.80
2024-02-24T06:10:10.830Z,5.40
2024-02-24T06:13:28.458Z,5.18
2024-02-24T06:16:46.073Z,6.88
2024-02-24T06:20:03.679Z,4.93
2024-02-24T06:23:21.554Z,5.78
2024-02-24T06:26:39.371Z,4.23
2024-02-24T06:29:57.419Z,5.75
2024-02-24T06:33:15.508Z,3.85
2024-02-24T06:36:33.212Z,3.00
2024-02-24T06:39:50.894Z,3.70
2024-02-24T06:43:08.571Z,4.18
2024-02-24T06:46:26.652Z,3.75
2024-02-24T06:49:44.339Z,5.38
2024-02-24T06:53:02.266Z,4.25
2024-02-24T06:56:20.660Z,3.58
2024-02-24T06:59:38.323Z,4.15
2024-02-24T07:02:56.736Z,9.13
2024-02-24T07:06:15.555Z,4.13
2024-02-24T07:09:33.215Z,4.20
2024-02-24T07:12:51.105Z,3.53
2024-02-24T07:16:08.746Z,4.73
2024-02-24T07:19:26.378Z,5.13
2024-02-24T07:22:44.028Z,4.93
2024-02-24T07:26:01.755Z,24.05
2024-02-24T07:29:19.647Z,14.75
2024-02-24T07:32:40.966Z,7.13
2024-02-24T07:35:56.749Z,7.73
2024-02-24T07:39:14.780Z,40.88
2024-02-24T07:42:32.446Z,6.38
2024-02-24T07:45:50.998Z,5.28
2024-02-24T07:49:09.918Z,6.08
2024-02-24T07:52:27.789Z,3.50
2024-02-24T07:55:45.516Z,2.35
2024-02-24T07:59:03.402Z,3.25
2024-02-24T08:02:21.283Z,2.55
2024-02-24T08:05:41.791Z,4.48
2024-02-24T08:08:59.780Z,3.75
2024-02-24T08:12:18.470Z,3.68
2024-02-24T08:15:36.233Z,8.20
2024-02-24T08:18:54.047Z,2.95
2024-02-24T08:22:11.971Z,6.60
2024-02-24T08:25:29.806Z,6.93
2024-02-24T08:28:47.516Z,6.08
2024-02-24T08:32:05.319Z,7.23
2024-02-24T08:35:23.675Z,5.30
2024-02-24T08:38:41.527Z,3.30
2024-02-24T08:41:59.712Z,2.33
2024-02-24T08:45:18.597Z,2.50
2024-02-24T08:48:37.567Z,3.60
2024-02-24T08:51:55.194Z,2.23
2024-02-24T08:55:13.812Z,6.40
2024-02-24T08:58:31.559Z,2.55
2024-02-24T09:01:49.084Z,3.43
2024-02-24T09:05:06.640Z,3.13
2024-02-24T09:08:24.447Z,3.60
2024-02-24T09:11:42.292Z,2.95
2024-02-24T09:15:00.067Z,2.93
2024-02-24T09:18:18.132Z,2.58
2024-02-24T09:21:36.650Z,4.48
2024-02-24T09:24:54.410Z,4.23
2024-02-24T09:28:13.246Z,2.88
2024-02-24T09:31:32.452Z,2.65
2024-02-24T09:34:50.438Z,5.15
2024-02-24T09:38:08.264Z,2.48
2024-02-24T09:41:28.377Z,3.30
2024-02-24T09:44:46.618Z,2.00
2024-02-24T09:48:05.179Z,2.95
2024-02-24T09:51:23.088Z,3.38
2024-02-24T09:54:40.869Z,2.90
2024-02-24T09:57:58.794Z,7.50
2024-02-24T10:01:16.905Z,3.55
2024-02-24T10:04:38.818Z,49.90
2024-02-24T10:07:59.150Z,4.05
2024-02-24T10:11:16.673Z,6.95
2024-02-24T10:14:36.952Z,4.38
2024-02-24T10:17:54.699Z,4.30
2024-02-24T10:21:13.003Z,5.05
2024-02-24T10:24:32.510Z,1.50
2024-02-24T10:27:53.044Z,2.35
2024-02-24T10:31:11.408Z,2.23
2024-02-24T10:34:29.087Z,2.73
2024-02-24T10:38:03.252Z,2.20
2024-02-24T10:41:07.766Z,2.25
2024-02-24T10:44:25.789Z,2.90
2024-02-24T10:47:43.807Z,2.18
2024-02-24T10:51:01.942Z,2.78
2024-02-24T10:54:24.133Z,3.45
2024-02-24T10:57:42.053Z,13.45
2024-02-24T11:01:00.242Z,4.15
2024-02-24T11:04:19.402Z,2.35
2024-02-24T11:07:41.272Z,3.18
2024-02-24T11:11:02.053Z,2.88
2024-02-24T11:14:20.156Z,3.15
2024-02-24T11:18:00.307Z,3.75
2024-02-24T11:21:18.499Z,3.10
2024-02-24T11:24:41.973Z,3.13
2024-02-24T11:28:05.713Z,3.43
2024-02-24T11:31:33.187Z,3.10
2024-02-24T11:34:52.823Z,4.68
2024-02-24T11:38:10.897Z,3.78
2024-02-24T11:41:28.435Z,5.33
2024-02-24T11:44:46.339Z,3.88
2024-02-24T11:48:04.130Z,4.85
2024-02-24T11:51:21.930Z,5.63
2024-02-24T11:54:44.677Z,7.65
2024-02-24T11:58:05.003Z,3.83
2024-02-24T12:01:25.108Z,3.65
2024-02-24T12:04:43.194Z,4.65
2024-02-24T12:08:02.950Z,9.03
2024-02-24T12:11:20.924Z,6.33
2024-02-24T12:14:40.007Z,8.65
2024-02-24T12:17:59.534Z,4.28
2024-02-24T12:21:18.709Z,17.73
2024-02-24T12:24:39.885Z,4.55
2024-02-24T12:27:58.982Z,4.10
2024-02-24T12:31:17.209Z,3.20
2024-02-24T12:34:35.399Z,5.08
2024-02-24T12:37:55.059Z,4.50
2024-02-24T12:41:18.720Z,4.65
2024-02-24T12:44:36.565Z,5.88
2024-02-24T12:47:56.545Z,5.98
2024-02-24T12:51:14.346Z,6.10
2024-02-24T12:54:31.961Z,4.15
2024-02-24T12:57:49.940Z,5.15
2024-02-24T13:01:08.997Z,6.48
2024-02-24T13:04:26.641Z,4.75
2024-02-24T13:07:44.789Z,4.70
2024-02-24T13:11:03.440Z,3.23
2024-02-24T13:14:21.034Z,5.10
2024-02-24T13:17:38.816Z,3.35
2024-02-24T13:20:56.544Z,3.65
2024-02-24T13:24:15.108Z,4.23
2024-02-24T13:27:32.771Z,3.38
2024-02-24T13:30:50.447Z,3.83
2024-02-24T13:34:08.289Z,3.03
2024-02-24T13:37:26.346Z,4.58
2024-02-24T13:40:44.124Z,4.93
2024-02-24T13:44:01.862Z,5.83
2024-02-24T13:47:20.164Z,4.88
2024-02-24T13:50:39.955Z,5.33
2024-02-24T13:53:57.730Z,4.93
2024-02-24T13:57:16.951Z,4.38
2024-02-24T14:00:34.880Z,4.33
2024-02-24T14:03:52.323Z,4.58
2024-02-24T14:07:10.340Z,5.28
2024-02-24T14:10:28.216Z,4.25
2024-02-24T14:13:45.858Z,6.33
2024-02-24T14:17:03.903Z,4.65
2024-02-24T14:20:28.488Z,4.70
2024-02-24T14:23:46.949Z,4.78
2024-02-24T14:27:07.454Z,6.08
2024-02-24T14:30:27.301Z,3.53
2024-02-24T14:33:44.925Z,5.65
2024-02-24T14:37:02.914Z,4.90
2024-02-24T14:40:24.213Z,13.58
2024-02-24T14:43:42.367Z,20.95
2024-02-24T14:47:09.582Z,10.38
2024-02-24T14:50:27.324Z,9.80
2024-02-24T14:53:44.939Z,6.28
2024-02-24T14:57:02.637Z,6.45
2024-02-24T15:00:22.678Z,3.33
2024-02-24T15:03:41.673Z,5.10
2024-02-24T15:06:59.422Z,3.48
2024-02-24T15:10:19.141Z,5.40
2024-02-24T15:13:37.996Z,10.75
2024-02-24T15:16:55.806Z,4.38
2024-02-24T15:20:14.949Z,3.88
2024-02-24T15:23:33.166Z,4.23
2024-02-24T15:26:53.168Z,4.60
2024-02-24T15:30:11.437Z,4.88
2024-02-24T15:33:29.767Z,4.65
2024-02-24T15:36:50.492Z,4.00
2024-02-24T15:40:10.464Z,3.18
2024-02-24T15:43:30.009Z,5.05
2024-02-24T15:46:48.592Z,6.05
2024-02-24T15:50:05.656Z,7.38
2024-02-24T15:53:24.634Z,6.78
2024-02-24T15:56:42.518Z,9.35
2024-02-24T16:00:00.259Z,4.03
2024-02-24T16:03:18.115Z,6.13
2024-02-24T16:06:36.101Z,4.00
2024-02-24T16:09:54.021Z,6.10
2024-02-24T16:13:12.655Z,4.53
2024-02-24T16:16:30.742Z,5.75
2024-02-24T16:19:50.751Z,10.68
2024-02-24T16:23:08.576Z,6.13
2024-02-24T16:26:26.351Z,8.90
2024-02-24T16:29:44.493Z,5.63
2024-02-24T16:33:02.526Z,8.05
2024-02-24T16:36:21.552Z,9.10
2024-02-24T16:39:39.057Z,17.63
2024-02-24T16:42:57.370Z,11.53
2024-02-24T16:46:15.376Z,11.80
2024-02-24T16:49:32.681Z,11.63
2024-02-24T16:52:50.458Z,9.40
2024-02-24T16:56:08.092Z,14.08
2024-02-24T16:59:25.754Z,7.23
2024-02-24T17:02:43.686Z,12.78
2024-02-24T17:06:02.637Z,10.45
2024-02-24T17:09:24.601Z,12.95
2024-02-24T17:12:42.362Z,9.80
2024-02-24T17:16:00.137Z,15.65
2024-02-24T17:19:18.307Z,16.38
2024-02-24T17:22:37.670Z,15.55
2024-02-24T17:25:56.740Z,19.55
2024-02-24T17:29:14.932Z,16.65
2024-02-24T17:32:32.852Z,15.10
2024-02-24T17:35:50.555Z,22.85
2024-02-24T17:39:08.670Z,20.45
2024-02-24T17:42:26.326Z,18.88
2024-02-24T17:45:43.918Z,18.45
2024-02-24T17:49:01.616Z,29.00
2024-02-24T17:52:19.456Z,25.83
2024-02-24T17:55:37.134Z,31.43
2024-02-24T17:58:55.432Z,18.85
2024-02-24T18:02:13.681Z,25.73
2024-02-24T18:05:31.779Z,30.03
2024-02-24T18:08:49.605Z,35.78
2024-02-24T18:12:07.481Z,29.95
2024-02-24T18:15:25.995Z,30.48
2024-02-24T18:18:44.141Z,33.85
2024-02-24T18:22:01.783Z,38.83
2024-02-24T18:25:20.055Z,35.70
2024-02-24T18:28:38.554Z,38.03
2024-02-24T18:31:56.108Z,42.63
2024-02-24T18:35:14.844Z,42.05
2024-02-24T18:38:32.810Z,42.98
2024-02-24T18:41:50.519Z,43.20
2024-02-24T18:45:08.648Z,33.85
2024-02-24T18:48:26.434Z,33.65
2024-02-24T18:51:43.866Z,32.53
2024-02-24T18:55:01.435Z,38.25
2024-02-24T18:58:18.970Z,45.55
2024-02-24T19:01:36.625Z,47.83
2024-02-24T19:04:54.841Z,48.68
2024-02-24T19:08:13.838Z,48.35
2024-02-24T19:11:32.503Z,45.38
2024-02-24T19:14:54.829Z,50.65
2024-02-24T19:18:15.220Z,46.55
2024-02-24T19:21:33.664Z,43.13
2024-02-24T19:24:51.514Z,42.78
2024-02-24T19:28:08.927Z,50.20
2024-02-24T19:31:26.872Z,40.60
2024-02-24T19:34:44.485Z,39.48
2024-02-24T19:38:02.234Z,43.88
2024-02-24T19:41:20.353Z,47.08
2024-02-24T19:44:39.385Z,47.95
2024-02-24T19:47:57.231Z,52.38
2024-02-24T19:51:15.368Z,52.33
2024-02-24T19:54:33.076Z,57.00
2024-02-24T19:57:50.822Z,52.10
2024-02-24T20:01:10.390Z,47.88
2024-02-24T20:04:27.398Z,45.53
2024-02-24T20:10:59.145Z,42.15
2024-02-24T20:17:31.806Z,51.98
2024-02-24T20:20:49.368Z,53.90
2024-02-24T20:24:06.279Z,53.10
2024-02-24T20:30:38.334Z,48.33
2024-02-24T20:34:00.637Z,58.88
2024-02-24T20:37:13.931Z,58.28
2024-02-24T20:40:31.188Z,53.45
2024-02-24T20:43:49.995Z,54.40
2024-02-24T20:51:03.134Z,54.73
2024-02-24T20:57:36.315Z,60.75
2024-02-24T21:00:53.238Z,69.80
2024-02-24T21:04:10.751Z,66.90
2024-02-24T21:07:28.019Z,73.45
2024-02-24T21:10:44.856Z,83.95
2024-02-24T21:17:16.501Z,88.80
2024-02-24T21:20:33.507Z,90.63
2024-02-24T21:23:52.315Z,86.10
2024-02-24T21:27:09.275Z,89.60
2024-02-24T21:30:27.169Z,86.95
2024-02-24T21:33:44.078Z,88.28
2024-02-24T21:40:19.611Z,80.40
2024-02-24T21:43:36.777Z,78.98
2024-02-24T21:46:53.342Z,96.33
2024-02-24T21:50:10.961Z,82.33
2024-02-24T21:53:27.896Z,87.80
2024-02-24T22:00:01.330Z,86.30
2024-02-24T22:03:18.279Z,93.08
2024-02-24T22:06:36.393Z,83.08
2024-02-24T22:09:53.984Z,86.68
2024-02-24T22:13:12.825Z,85.53
2024-02-24T22:16:30.248Z,89.50
2024-02-24T22:19:47.968Z,94.15
2024-02-24T22:23:06.154Z,89.75
2024-02-24T22:26:26.016Z,89.60
2024-02-24T22:29:44.505Z,90.38
2024-02-24T22:33:01.953Z,100.05
2024-02-24T22:36:22.501Z,104.50
2024-02-24T22:39:39.257Z,94.20
2024-02-24T22:42:56.880Z,104.68
2024-02-24T22:46:14.854Z,118.28
2024-02-24T22:49:32.644Z,116.78
2024-02-24T22:52:50.501Z,114.63
2024-02-24T22:56:08.236Z,104.38
2024-02-24T22:59:25.943Z,111.70
2024-02-24T23:02:45.595Z,116.50
2024-02-24T23:06:03.716Z,123.30
2024-02-24T23:09:21.628Z,129.88
2024-02-24T23:12:39.491Z,131.50
2024-02-24T23:15:57.418Z,124.95
2024-02-24T23:19:15.693Z,108.95
2024-02-24T23:22:34.587Z,108.35
2024-02-24T23:25:53.364Z,109.83
2024-02-24T23:29:12.357Z,115.30
2024-02-24T23:32:29.955Z,110.30
2024-02-24T23:35:47.866Z,110.45
2024-02-24T23:39:07.743Z,111.15
2024-02-24T23:42:25.188Z,115.68
2024-02-24T23:45:43.671Z,113.28
2024-02-24T23:49:01.232Z,112.93
2024-02-24T23:52:19.056Z,108.00
2024-02-24T23:55:37.185Z,112.50
2024-02-24T23:58:54.877Z,106.98
